Flight Track Log - Related Links

Times and Time Zones

All times are in EDT time to prevent confusion due to time zone crossing. See the SWA2278 flight status page for this flight to view local times or setup timezone preferences in your user account.

Time Position Orientation Groundspeed Altitude Reporting Facility
EDT Latitude Longitude Course Direction KTS MPH feet Rate Location/Type
Fri 11:51:01 AM 29.6583 -95.2647 North 175 201 800  Level Houston Center
Fri 11:52:04 AM 29.7169 -95.2625 North 248 285 3,100 2,903 Climbing Houston Center
Fri 11:53:05 AM 29.7719 -95.3111 323° Northwest 254 292 6,800 3,541 Climbing Houston Center
Fri 11:54:06 AM 29.8467 -95.3261 350° North 281 323 10,300 2,149 Climbing Houston Center
Fri 11:55:19 AM 29.9392 -95.2806 23° Northeast 333 383 11,600 1,956 Climbing Houston Center
Fri 11:56:21 AM 30.0350 -95.2247 27° Northeast 376 433 14,700 2,516 Climbing Houston Center
Fri 11:57:23 AM 30.1350 -95.1664 27° Northeast 394 453 16,800 2,177 Climbing Houston Center
Fri 11:58:25 AM 30.2628 -95.0894 27° Northeast 423 487 19,200 2,226 Climbing Houston Center
Fri 11:59:27 AM 30.3750 -95.0236 27° Northeast 443 510 21,400 1,935 Climbing Houston Center
Fri 12:00:29 PM 30.4828 -94.9464 32° Northeast 447 514 23,200 1,536 Climbing Houston Center
Fri 12:01:32 PM 30.5928 -94.8606 34° Northeast 467 537 24,600 1,440 Climbing Houston Center
Fri 12:02:34 PM 30.7069 -94.7725 34° Northeast 484 557 26,200 1,210 Climbing Houston Center
Fri 12:03:36 PM 30.8231 -94.6836 33° Northeast 496 571 27,100 1,161 Climbing Houston Center
Fri 12:04:38 PM 30.9672 -94.5728 33° Northeast 517 595 28,600 1,452 Climbing Houston Center
Fri 12:05:40 PM 31.0850 -94.4819 33° Northeast 512 589 30,100 1,355 Climbing Houston Center
Fri 12:06:42 PM 31.2025 -94.3900 34° Northeast 513 590 31,400 1,113 Climbing Houston Center
Fri 12:07:44 PM 31.3250 -94.2933 34° Northeast 520 598 32,400 787 Climbing Fort Worth Center
Fri 12:08:44 PM 31.4439 -94.2017 33° Northeast 515 593 33,000 300 Climbing Fort Worth Center
Fri 12:09:44 PM 31.5647 -94.1072 34° Northeast 515 593 33,000  Level Fort Worth Center
Fri 12:10:44 PM 31.6833 -94.0175 33° Northeast 515 593 33,000  Level Fort Worth Center
Fri 12:11:44 PM 31.7978 -93.9278 34° Northeast 510 587 33,000  Level Fort Worth Center
Fri 12:12:44 PM 31.9142 -93.8353 34° Northeast 505 581 33,000  Level Fort Worth Center
Fri 12:13:44 PM 32.0306 -93.7403 35° Northeast 505 581 33,000  Level Fort Worth Center
Fri 12:14:44 PM 32.1486 -93.6472 34° Northeast 505 581 33,000  Level Fort Worth Center
Fri 12:15:44 PM 32.2667 -93.5439 36° Northeast 510 587 33,000  Level Fort Worth Center
Fri 12:16:44 PM 32.3847 -93.4503 34° Northeast 510 587 33,000  Level Fort Worth Center
Fri 12:17:44 PM 32.5008 -93.3542 35° Northeast 510 587 33,000  Level Fort Worth Center
Fri 12:18:44 PM 32.6228 -93.2597 33° Northeast 505 581 33,000  Level Fort Worth Center
Fri 12:19:44 PM 32.7408 -93.1631 35° Northeast 511 588 33,000  Level Fort Worth Center
Fri 12:20:45 PM 32.8586 -93.0708 33° Northeast 511 588 33,000  Level Fort Worth Center
Fri 12:21:44 PM 32.9742 -92.9736 35° Northeast 511 588 33,000  Level Fort Worth Center
Fri 12:22:44 PM 33.0900 -92.8811 34° Northeast 506 582 33,000  Level Fort Worth Center
Fri 12:24:44 PM 33.3083 -92.6689 39° Northeast 505 581 33,000  Level Memphis Center
Fri 12:25:44 PM 33.4003 -92.5319 51° Northeast 512 589 33,000  Level Memphis Center
Fri 12:26:44 PM 33.4883 -92.3947 52° Northeast 522 601 33,000  Level Memphis Center
Fri 12:27:44 PM 33.5781 -92.2547 52° Northeast 522 601 33,000  Level Memphis Center
Fri 12:28:44 PM 33.6719 -92.1194 50° Northeast 527 606 33,000  Level Memphis Center
Fri 12:29:44 PM 33.7614 -91.9839 52° Northeast 527 606 33,000  Level Memphis Center
Fri 12:30:44 PM 33.8508 -91.8453 52° Northeast 522 601 33,000  Level Memphis Center
Fri 12:31:44 PM 33.9467 -91.6867 54° Northeast 527 606 33,000  Level Memphis Center
Fri 12:32:44 PM 34.0356 -91.5478 52° Northeast 527 606 33,000  Level Memphis Center
Fri 12:33:44 PM 34.1286 -91.4061 52° Northeast 527 606 33,000  Level Memphis Center
Fri 12:34:44 PM 34.2069 -91.2789 53° Northeast 527 606 33,000  Level Memphis Center
Fri 12:35:44 PM 34.2975 -91.1392 52° Northeast 527 606 33,000  Level Memphis Center
Fri 12:36:44 PM 34.3881 -90.9914 53° Northeast 527 606 33,000  Level Memphis Center
Fri 12:37:44 PM 34.4786 -90.8508 52° Northeast 527 606 33,000  Level Memphis Center
Fri 12:38:44 PM 34.5686 -90.7053 53° Northeast 527 606 33,000  Level Memphis Center
Fri 12:39:44 PM 34.6589 -90.5567 54° Northeast 527 606 33,000  Level Memphis Center
Fri 12:40:44 PM 34.7592 -90.3975 52° Northeast 532 612 33,000  Level Memphis Center
Fri 12:41:44 PM 34.8486 -90.2483 54° Northeast 532 612 33,000  Level Memphis Center
Fri 12:42:44 PM 34.9425 -90.1011 52° Northeast 547 629 33,000 50 Level Memphis Center
Fri 12:43:44 PM 35.0297 -89.9489 55° Northeast 547 629 33,100  Climbing Memphis Center
Fri 12:44:44 PM 35.0853 -89.7911 67° East 547 629 33,000 -50 Descending Memphis Center
Fri 12:45:44 PM 35.1408 -89.6156 69° East 547 629 33,000  Level Memphis Center
Fri 12:46:44 PM 35.1981 -89.4422 68° East 547 629 33,000  Level Memphis Center
Fri 12:47:44 PM 35.2550 -89.2689 68° East 547 629 33,000  Level Memphis Center
Fri 12:48:44 PM 35.3117 -89.0950 68° East 547 629 33,000  Level Memphis Center
Fri 12:49:44 PM 35.3742 -88.9056 68° East 547 629 33,000 -100 Level Memphis Center
Fri 12:50:44 PM 35.4264 -88.7314 70° East 547 629 32,800 -1,700 Descending Memphis Center
Fri 12:51:44 PM 35.4844 -88.5544 68° East 547 629 29,600 -2,950 Descending Memphis Center
Fri 12:52:44 PM 35.5422 -88.3822 68° East 547 629 26,900 -2,650 Descending Memphis Center
Fri 12:53:44 PM 35.5958 -88.2150 68° East 540 621 24,300 -2,500 Descending Memphis Center
Fri 12:54:44 PM 35.6453 -88.0603 68° East 509 586 21,900 -2,500 Descending Memphis Center
Fri 12:55:44 PM 35.6922 -87.9056 69° East 488 562 19,300 -2,500 Descending Memphis Center
Fri 12:56:44 PM 35.7392 -87.7558 69° East 467 537 16,900 -2,450 Descending Memphis Center
Fri 12:57:44 PM 35.7819 -87.6139 70° East 450 518 14,400 -2,450 Descending Memphis Center
Fri 12:58:44 PM 35.8269 -87.4792 68° East 438 504 12,000 -2,050 Descending Memphis Center
Fri 12:59:44 PM 35.8719 -87.3547 66° East 416 479 10,300 -1,250 Descending Memphis Center
Fri 01:00:44 PM 35.9047 -87.2433 70° East 377 434 9,500 -1,150 Descending Memphis Center
Fri 01:01:44 PM 35.9269 -87.1322 76° East 331 381 8,000 -1,700 Descending Memphis Center
Fri 01:02:44 PM 35.9492 -87.0261 75° East 319 367 6,100 -1,550 Descending Memphis Center
Fri 01:03:44 PM 35.9694 -86.9281 76° East 307 353 4,900 -950 Descending Memphis Center
Fri 01:04:44 PM 35.9858 -86.8478 76° East 288 331 4,200 -700 Descending Memphis Center
Fri 01:05:44 PM 36.0022 -86.7675 76° East 252 290 3,500 -850 Descending Memphis Center
Fri 01:06:44 PM 36.0217 -86.7178 64° Northeast 194 223 2,500 -1,000 Descending Memphis Center
Fri 01:07:44 PM 36.0589 -86.7061 14° North 144 166 1,500 -900 Descending Memphis Center
Fri 01:08:44 PM 36.1000 -86.6886 19° North 138 159 700 -800 Descending Memphis Center
Fri 01:14:00 PM 36.1245 -86.6782 206° Southwest  Level Estimated
Fri 01:21:00 PM 36.1245 -86.6782 206° Southwest  Level Estimated
Fri 01:22:00 PM 36.1245 -86.6782 206° Southwest  Level Estimated
Fri 01:23:00 PM 36.1245 -86.6782 206° Southwest  Level Estimated
Fri 01:24:00 PM 36.1245 -86.6782 206° Southwest  Level Estimated
Fri 01:25:00 PM 36.1245 -86.6782 206° Southwest  Level Estimated
Fri 01:26:00 PM 36.1245 -86.6782 206° Southwest  Level Estimated
Fri 01:27:00 PM 36.1245 -86.6782 206° Southwest  Level Estimated
Fri 01:28:00 PM 36.1245 -86.6782 206° Southwest  Level Estimated
Fri 01:29:00 PM 36.1245 -86.6782 206° Southwest  Level Estimated
Fri 01:30:00 PM 36.1245 -86.6782 206° Southwest  Level Estimated

Login

Don't have an account? Register now (free) for customized features, flight alerts, and more!